Time;durP1;ratioP1;P1;durP2;ratioP2;P2;SDS_P1;SDS_P2;PMS_P1;PMS_P2;Temp;Humidity;BMP_temperature;BMP_pressure;BME280_temperature;BME280_humidity;BME280_pressure;Samples;Min_cycle;Max_cycle;Signal;HPM_P1;HPM_P2
2022/06/26 00:01:42;;;;;;;6.35;1.95;;;13.90;59.40;;;;;;4954115;29;20199;-55
2022/06/26 00:04:13;;;;;;;2.55;1.48;;;13.90;59.50;;;;;;4954952;28;20210;-54
2022/06/26 00:06:44;;;;;;;3.30;1.50;;;14.00;59.50;;;;;;4954011;29;20206;-51
2022/06/26 00:09:15;;;;;;;3.67;1.70;;;14.00;59.50;;;;;;4955194;28;20195;-55
2022/06/26 00:11:45;;;;;;;1.80;1.40;;;14.00;59.50;;;;;;4953855;29;20706;-52
2022/06/26 00:14:18;;;;;;;3.05;2.10;;;14.00;59.50;;;;;;4954643;28;20221;-53
2022/06/26 00:16:49;;;;;;;3.58;2.00;;;14.00;59.50;;;;;;4953780;29;20592;-57
2022/06/26 00:19:19;;;;;;;4.13;2.45;;;14.10;60.20;;;;;;4952833;28;20199;-56
2022/06/26 00:21:50;;;;;;;3.85;2.53;;;14.10;59.80;;;;;;4953153;29;20199;-53
2022/06/26 00:24:21;;;;;;;6.10;3.00;;;14.10;60.40;;;;;;4953838;28;20314;-54
2022/06/26 00:26:52;;;;;;;6.88;4.70;;;14.10;61.00;;;;;;4954301;29;20662;-54
2022/06/26 00:29:24;;;;;;;4.97;3.45;;;14.20;61.00;;;;;;4953759;28;20540;-53
2022/06/26 00:31:55;;;;;;;5.68;3.13;;;14.20;61.00;;;;;;4954526;29;20215;-56
2022/06/26 00:34:26;;;;;;;3.92;3.08;;;14.30;61.00;;;;;;4971254;28;20581;-56
2022/06/26 00:36:56;;;;;;;4.43;2.97;;;14.30;60.90;;;;;;4973095;28;20243;-49
2022/06/26 00:39:27;;;;;;;7.85;3.35;;;14.30;60.80;;;;;;4969491;28;20202;-54
2022/06/26 00:41:58;;;;;;;3.92;2.75;;;14.40;60.80;;;;;;4953274;29;20202;-51
2022/06/26 00:44:31;;;;;;;4.38;3.13;;;14.40;60.70;;;;;;4970481;28;20588;-55
2022/06/26 00:47:02;;;;;;;4.35;2.78;;;14.40;60.70;;;;;;4972901;28;20257;-57
2022/06/26 00:49:33;;;;;;;5.93;3.10;;;14.40;60.70;;;;;;4966676;28;20195;-54
2022/06/26 00:52:04;;;;;;;4.53;2.60;;;14.50;60.60;;;;;;4953706;29;20206;-53
2022/06/26 00:54:35;;;;;;;3.78;2.72;;;14.50;60.60;;;;;;4971082;28;20226;-51
2022/06/26 00:57:06;;;;;;;3.05;2.40;;;14.50;60.50;;;;;;4957853;28;20745;-50
2022/06/26 00:59:39;;;;;;;6.05;2.75;;;14.50;60.50;;;;;;4953477;28;20202;-54
2022/06/26 01:02:10;;;;;;;4.30;2.78;;;14.60;60.50;;;;;;4953632;29;20203;-51
2022/06/26 01:04:40;;;;;;;3.72;2.72;;;14.60;60.50;;;;;;4953177;28;20226;-49
2022/06/26 01:07:12;;;;;;;4.18;2.65;;;14.60;60.40;;;;;;4953458;29;20203;-54
2022/06/26 01:09:43;;;;;;;5.13;3.05;;;14.60;60.30;;;;;;4953860;28;20714;-49
2022/06/26 01:12:14;;;;;;;2.97;2.22;;;14.70;60.20;;;;;;4952710;29;20297;-51
2022/06/26 01:14:47;;;;;;;3.10;2.25;;;14.70;60.20;;;;;;4952859;28;20211;-56
2022/06/26 01:17:17;;;;;;;3.45;2.55;;;14.80;60.40;;;;;;4953340;29;20562;-50
2022/06/26 01:19:48;;;;;;;3.72;2.38;;;14.80;60.40;;;;;;4952646;28;20538;-53
2022/06/26 01:22:19;;;;;;;3.50;2.38;;;14.80;60.50;;;;;;4953527;29;20203;-50
2022/06/26 01:24:52;;;;;;;3.28;2.60;;;14.80;60.50;;;;;;4952897;28;20218;-53
2022/06/26 01:27:22;;;;;;;3.78;2.78;;;14.90;60.50;;;;;;4953852;29;20198;-51
2022/06/26 01:29:53;;;;;;;3.17;2.22;;;14.90;60.50;;;;;;4952722;28;20201;-52
2022/06/26 01:32:24;;;;;;;2.60;2.40;;;14.90;60.50;;;;;;4952753;29;20214;-51
2022/06/26 01:34:55;;;;;;;5.07;2.95;;;14.90;60.40;;;;;;4953112;28;20218;-51
2022/06/26 01:37:28;;;;;;;4.22;3.33;;;15.00;60.40;;;;;;4953238;29;20226;-55
2022/06/26 01:40:00;;;;;;;4.88;3.25;;;15.00;60.40;;;;;;4954041;28;20297;-55
2022/06/26 01:42:31;;;;;;;9.27;5.20;;;15.00;60.80;;;;;;4952316;29;20203;-52
2022/06/26 01:45:02;;;;;;;9.13;5.55;;;15.10;61.60;;;;;;4953006;28;21020;-54
2022/06/26 01:47:32;;;;;;;7.18;4.40;;;15.10;62.00;;;;;;4952396;29;20202;-58
2022/06/26 01:50:03;;;;;;;7.88;4.10;;;15.20;62.10;;;;;;4951718;28;20845;-57
2022/06/26 01:52:34;;;;;;;6.63;4.40;;;15.20;62.00;;;;;;4952179;29;20557;-59
2022/06/26 01:55:07;;;;;;;6.40;4.13;;;15.20;61.80;;;;;;4952479;28;20566;-60
2022/06/26 01:57:37;;;;;;;5.95;3.97;;;15.30;61.70;;;;;;4952789;29;20234;-60
2022/06/26 02:00:09;;;;;;;6.32;4.60;;;15.30;61.60;;;;;;4953046;28;20206;-58
2022/06/26 02:02:40;;;;;;;7.43;4.20;;;15.40;61.60;;;;;;4952443;29;20199;-57
2022/06/26 02:05:11;;;;;;;5.50;3.50;;;15.40;61.40;;;;;;4952799;28;20234;-60
2022/06/26 02:07:42;;;;;;;8.40;4.28;;;15.40;61.30;;;;;;4957025;29;20202;-59
2022/06/26 02:15:48;;;;;;;7.38;4.32;;;15.50;60.90;;;;;;4956153;28;20225;-57
2022/06/26 02:18:18;;;;;;;6.63;3.95;;;15.50;60.80;;;;;;4956067;28;20226;-57
2022/06/26 02:20:49;;;;;;;4.03;3.63;;;15.50;60.70;;;;;;4955418;29;20242;-57
2022/06/26 02:23:20;;;;;;;6.38;4.40;;;15.60;60.70;;;;;;4955439;28;20203;-63
2022/06/26 02:25:53;;;;;;;6.72;4.25;;;15.60;60.70;;;;;;4956132;28;20215;-59
2022/06/26 02:28:24;;;;;;;4.97;4.10;;;15.60;60.60;;;;;;4956409;28;20651;-60
2022/06/26 02:30:54;;;;;;;6.55;4.50;;;15.60;60.50;;;;;;4955077;29;20203;-57
2022/06/26 02:33:25;;;;;;;8.23;4.05;;;15.70;60.60;;;;;;4956169;28;20213;-56
2022/06/26 02:35:56;;;;;;;5.65;4.07;;;15.70;60.50;;;;;;4956697;28;20223;-58
2022/06/26 02:38:27;;;;;;;5.13;4.07;;;15.70;60.40;;;;;;4955406;28;20218;-58
2022/06/26 02:41:00;;;;;;;6.75;3.90;;;15.70;60.40;;;;;;4955212;29;20666;-58
2022/06/26 02:43:31;;;;;;;5.63;4.13;;;15.80;60.40;;;;;;4955199;28;20187;-60
2022/06/26 02:46:01;;;;;;;4.85;3.78;;;15.80;60.30;;;;;;4955070;28;20214;-59
2022/06/26 02:48:32;;;;;;;6.10;3.75;;;15.80;60.20;;;;;;4955840;28;20194;-59
2022/06/26 02:51:03;;;;;;;4.68;3.72;;;15.80;60.10;;;;;;4955334;29;20203;-60
2022/06/26 02:53:33;;;;;;;4.95;3.75;;;15.90;60.10;;;;;;4955792;28;20195;-57
2022/06/26 02:56:06;;;;;;;6.05;3.97;;;15.90;60.00;;;;;;4955282;28;20305;-60
2022/06/26 02:58:37;;;;;;;7.30;4.03;;;15.90;60.00;;;;;;4955565;28;20222;-57
2022/06/26 03:01:08;;;;;;;7.13;4.10;;;15.90;59.90;;;;;;4955368;29;20570;-59
2022/06/26 03:03:38;;;;;;;5.22;3.50;;;16.00;59.90;;;;;;4955775;28;20194;-63
2022/06/26 03:06:09;;;;;;;4.15;3.55;;;16.00;59.90;;;;;;4955186;28;20223;-64
2022/06/26 03:08:40;;;;;;;4.47;3.75;;;16.00;60.50;;;;;;4956165;28;20187;-57
2022/06/26 03:11:12;;;;;;;8.70;3.70;;;16.00;59.80;;;;;;4955429;29;20213;-54
2022/06/26 03:13:43;;;;;;;9.48;3.97;;;16.10;59.80;;;;;;4955645;28;20187;-58
2022/06/26 03:16:14;;;;;;;34.95;7.22;;;16.10;59.90;;;;;;4955040;28;20215;-53
2022/06/26 03:18:44;;;;;;;39.35;9.60;;;16.10;60.70;;;;;;4955825;28;20223;-62
2022/06/26 03:21:15;;;;;;;39.78;9.38;;;16.20;60.10;;;;;;4936239;29;20203;-61
2022/06/26 03:24:04;;;;;;;56.05;10.13;;;16.20;59.90;;;;;;4939415;28;20195;-61
2022/06/26 03:26:39;;;;;;;43.00;9.32;;;16.30;59.70;;;;;;4955031;29;20199;-61
2022/06/26 03:29:11;;;;;;;24.05;6.63;;;16.40;59.70;;;;;;4954928;28;20680;-59
2022/06/26 03:31:42;;;;;;;23.73;5.55;;;16.40;59.80;;;;;;4955081;29;20206;-69
2022/06/26 03:34:12;;;;;;;26.63;4.50;;;16.50;59.70;;;;;;4954414;28;20195;-61
2022/06/26 03:36:43;;;;;;;26.50;5.78;;;16.50;59.60;;;;;;4955629;29;20195;-43
2022/06/26 03:39:14;;;;;;;41.88;7.00;;;16.60;59.80;;;;;;4955115;28;20223;-44
2022/06/26 03:41:57;;;;;;;34.83;6.35;;;16.60;59.30;;;;;;4955221;29;20950;-49
2022/06/26 03:44:28;;;;;;;32.35;5.68;;;16.70;59.10;;;;;;4954901;28;20734;-45
2022/06/26 03:47:00;;;;;;;49.33;6.88;;;16.80;59.00;;;;;;4954776;29;20655;-44
2022/06/26 03:49:30;;;;;;;45.35;6.13;;;16.80;58.10;;;;;;4954062;28;20202;-44
2022/06/26 03:52:01;;;;;;;30.20;5.30;;;16.80;57.90;;;;;;4954992;29;20202;-46
2022/06/26 03:54:33;;;;;;;21.67;6.25;;;16.90;58.00;;;;;;4954923;28;20583;-45
2022/06/26 03:57:06;;;;;;;16.77;5.22;;;16.90;58.00;;;;;;4956225;29;20286;-47
2022/06/26 03:59:37;;;;;;;17.52;6.18;;;16.90;57.80;;;;;;4954543;28;20659;-50
2022/06/26 04:02:09;;;;;;;14.77;6.00;;;17.00;57.70;;;;;;4954250;29;20555;-45
2022/06/26 04:04:40;;;;;;;18.58;5.35;;;17.00;57.70;;;;;;4954083;28;20218;-44
2022/06/26 04:07:12;;;;;;;17.10;6.38;;;17.00;57.80;;;;;;4957572;28;20195;-44
2022/06/26 04:09:43;;;;;;;23.02;6.43;;;17.00;57.80;;;;;;4963790;28;20674;-44
2022/06/26 04:12:15;;;;;;;18.40;5.78;;;17.10;57.80;;;;;;4953034;28;20206;-44
2022/06/26 04:14:46;;;;;;;14.48;5.35;;;17.10;57.80;;;;;;4953429;28;20215;-48
2022/06/26 04:17:17;;;;;;;17.75;5.32;;;17.10;57.90;;;;;;4954012;29;20194;-44
2022/06/26 04:19:49;;;;;;;14.88;5.47;;;17.10;57.90;;;;;;4953504;28;20206;-43
2022/06/26 04:22:20;;;;;;;13.43;5.15;;;17.20;57.90;;;;;;4954442;29;20207;-45
2022/06/26 04:24:50;;;;;;;16.40;6.00;;;17.20;57.70;;;;;;4953781;28;20703;-44
2022/06/26 04:27:23;;;;;;;11.98;5.10;;;17.20;57.70;;;;;;4951670;28;20851;-44
2022/06/26 04:29:54;;;;;;;11.27;5.50;;;17.20;57.60;;;;;;4942518;28;20206;-45
2022/06/26 04:32:24;;;;;;;13.27;5.50;;;17.20;57.60;;;;;;4953104;29;20207;-46
2022/06/26 04:37:34;;;;;;;10.90;4.47;;;17.20;57.50;;;;;;5770591;23;21002;-45
2022/06/26 04:40:09;;;;;;;10.80;5.15;;;17.20;57.50;;;;;;4973506;28;20676;-53
2022/06/26 04:42:42;;;;;;;14.13;4.20;;;17.20;57.50;;;;;;4973675;28;20197;-47
2022/06/26 04:45:14;;;;;;;11.35;4.88;;;17.10;57.40;;;;;;4972912;28;20230;-50
2022/06/26 04:47:44;;;;;;;8.05;4.07;;;17.10;57.50;;;;;;4972952;28;20198;-53
2022/06/26 04:50:15;;;;;;;11.00;5.13;;;17.10;57.50;;;;;;4972481;28;20205;-52
2022/06/26 04:52:48;;;;;;;8.75;4.50;;;17.10;57.50;;;;;;4972326;28;20209;-50
2022/06/26 04:55:18;;;;;;;7.95;4.32;;;17.10;57.60;;;;;;4972679;28;20228;-53
2022/06/26 04:57:51;;;;;;;7.30;4.30;;;17.10;57.60;;;;;;4972732;28;20568;-51
2022/06/26 05:00:22;;;;;;;9.52;5.18;;;17.10;57.60;;;;;;4972918;28;20702;-50
2022/06/26 05:02:53;;;;;;;10.38;4.55;;;17.10;57.60;;;;;;4973324;28;20195;-50
2022/06/26 05:05:24;;;;;;;10.20;4.82;;;17.10;57.60;;;;;;4981906;28;20232;-55
2022/06/26 05:07:54;;;;;;;6.82;4.50;;;17.10;57.60;;;;;;4992269;28;20201;-48
2022/06/26 05:10:25;;;;;;;7.25;4.47;;;17.00;57.50;;;;;;4991909;28;20650;-56
2022/06/26 05:12:58;;;;;;;10.55;4.28;;;17.00;57.50;;;;;;4992533;28;20204;-49
2022/06/26 05:15:28;;;;;;;9.07;4.40;;;17.00;57.50;;;;;;4991223;28;20300;-45
2022/06/26 05:17:59;;;;;;;11.82;4.45;;;17.00;57.50;;;;;;4992138;28;20222;-52
2022/06/26 05:20:30;;;;;;;7.70;4.45;;;17.00;57.50;;;;;;4977497;28;20220;-51
2022/06/26 05:23:07;;;;;;;7.28;3.97;;;16.90;57.50;;;;;;4972887;28;20209;-49
2022/06/26 05:25:38;;;;;;;7.47;4.18;;;16.90;57.50;;;;;;4972829;28;20214;-47
2022/06/26 05:28:12;;;;;;;9.07;4.90;;;16.90;57.50;;;;;;4972722;28;20205;-49
2022/06/26 05:30:46;;;;;;;10.93;4.93;;;16.90;57.60;;;;;;4973287;28;20221;-54
2022/06/26 05:33:17;;;;;;;8.15;3.92;;;16.80;57.50;;;;;;4972437;28;20300;-52
2022/06/26 05:35:47;;;;;;;6.70;4.10;;;16.80;57.50;;;;;;4974010;28;20218;-51
2022/06/26 05:38:18;;;;;;;7.00;4.40;;;16.80;57.50;;;;;;4972189;28;20722;-53
2022/06/26 05:40:49;;;;;;;7.63;4.35;;;16.80;57.60;;;;;;4981478;28;20672;-52
2022/06/26 05:43:21;;;;;;;6.07;3.65;;;16.80;57.60;;;;;;4991346;28;20205;-55
2022/06/26 05:45:52;;;;;;;6.55;4.28;;;16.80;57.60;;;;;;4991999;28;20313;-53
2022/06/26 05:48:24;;;;;;;7.30;3.75;;;16.80;58.10;;;;;;4992362;28;20247;-53
2022/06/26 05:50:55;;;;;;;7.63;4.32;;;16.70;57.50;;;;;;4975270;28;20201;-57
2022/06/26 05:53:26;;;;;;;6.90;3.90;;;16.70;57.50;;;;;;4972717;28;20566;-50
2022/06/26 05:55:57;;;;;;;7.60;4.00;;;16.70;57.40;;;;;;4971773;28;20214;-52
2022/06/26 05:58:30;;;;;;;6.50;4.25;;;16.70;57.50;;;;;;4972605;28;20232;-54
2022/06/26 06:01:01;;;;;;;7.18;4.43;;;16.60;57.40;;;;;;4971840;28;20194;-55
2022/06/26 06:03:32;;;;;;;6.15;4.20;;;16.60;57.40;;;;;;4971855;28;20240;-53
2022/06/26 06:06:03;;;;;;;8.90;4.30;;;16.60;57.50;;;;;;4971944;28;20276;-53
2022/06/26 06:08:34;;;;;;;5.78;4.35;;;16.60;57.50;;;;;;4972554;28;20208;-54
2022/06/26 06:11:04;;;;;;;6.80;4.18;;;16.50;57.40;;;;;;4972123;28;20196;-47
2022/06/26 06:13:37;;;;;;;7.22;4.85;;;16.50;57.50;;;;;;4972626;28;20654;-54
2022/06/26 06:16:08;;;;;;;7.57;5.10;;;16.50;57.50;;;;;;4971768;28;20221;-54
2022/06/26 06:18:39;;;;;;;5.43;4.03;;;16.50;57.50;;;;;;4972103;28;20257;-51
2022/06/26 06:21:10;;;;;;;5.45;4.18;;;16.50;57.50;;;;;;4971992;28;20203;-52
2022/06/26 06:23:42;;;;;;;6.45;4.43;;;16.50;57.50;;;;;;4971184;28;20197;-49
2022/06/26 06:26:14;;;;;;;7.30;4.22;;;16.40;57.50;;;;;;4971938;28;20222;-49
2022/06/26 06:28:47;;;;;;;6.00;4.22;;;16.40;57.50;;;;;;4971289;28;20238;-52
2022/06/26 06:31:18;;;;;;;5.93;3.92;;;16.40;57.50;;;;;;4971453;28;20198;-52
2022/06/26 06:33:48;;;;;;;7.82;4.35;;;16.40;57.50;;;;;;4971587;28;20198;-48
2022/06/26 06:36:19;;;;;;;5.70;4.47;;;16.40;57.60;;;;;;4972478;28;20219;-50
2022/06/26 06:38:50;;;;;;;6.22;4.30;;;16.40;57.60;;;;;;4971231;28;20222;-52
2022/06/26 06:41:21;;;;;;;6.97;4.22;;;16.30;58.10;;;;;;4971791;28;20646;-50
2022/06/26 06:43:53;;;;;;;9.30;4.40;;;16.30;57.60;;;;;;4971072;28;20203;-50
2022/06/26 06:46:24;;;;;;;6.00;4.05;;;16.30;57.50;;;;;;4980418;28;20195;-49
2022/06/26 06:48:55;;;;;;;6.60;4.40;;;16.30;57.60;;;;;;4990098;28;20208;-52
2022/06/26 06:51:25;;;;;;;5.30;4.30;;;16.30;57.60;;;;;;4971173;28;20201;-52
2022/06/26 06:53:56;;;;;;;7.45;4.65;;;16.20;57.60;;;;;;4974826;28;20273;-53
2022/06/26 06:56:27;;;;;;;5.70;4.07;;;16.20;57.70;;;;;;4974566;28;20194;-50
2022/06/26 06:59:00;;;;;;;8.00;4.32;;;16.20;57.70;;;;;;4974937;28;20237;-52
2022/06/26 07:01:30;;;;;;;7.35;4.30;;;16.20;57.70;;;;;;4974658;28;20205;-53
2022/06/26 07:04:01;;;;;;;6.82;4.28;;;16.10;57.60;;;;;;4975261;28;20662;-51
2022/06/26 07:06:32;;;;;;;5.35;4.35;;;16.10;57.70;;;;;;4974491;28;20674;-51
2022/06/26 07:09:03;;;;;;;6.63;4.78;;;16.10;57.60;;;;;;4974807;28;20199;-52
2022/06/26 07:11:34;;;;;;;7.18;4.55;;;16.10;57.60;;;;;;4975219;28;20227;-51
2022/06/26 07:14:06;;;;;;;7.90;4.95;;;16.10;57.60;;;;;;4974680;28;20206;-54
2022/06/26 07:16:37;;;;;;;6.10;4.40;;;16.10;57.60;;;;;;4974841;28;20314;-49
2022/06/26 07:19:08;;;;;;;5.72;4.80;;;16.00;57.60;;;;;;4973891;28;20236;-55
2022/06/26 07:21:39;;;;;;;5.35;4.18;;;16.00;57.60;;;;;;4974124;28;20205;-53
2022/06/26 07:24:09;;;;;;;6.38;4.65;;;16.00;57.60;;;;;;4974388;28;20198;-53
2022/06/26 07:26:40;;;;;;;6.18;4.35;;;16.00;57.60;;;;;;4974887;28;20190;-54
2022/06/26 07:29:13;;;;;;;5.63;4.45;;;15.90;57.60;;;;;;4973849;28;20202;-53
2022/06/26 07:31:44;;;;;;;6.13;5.00;;;15.90;57.60;;;;;;4987485;28;20212;-51
2022/06/26 07:34:16;;;;;;;5.43;4.35;;;15.90;57.60;;;;;;4980662;28;20198;-53
2022/06/26 07:36:48;;;;;;;5.57;4.57;;;15.80;57.60;;;;;;4967998;28;20213;-53
2022/06/26 07:39:21;;;;;;;5.68;4.65;;;15.80;57.60;;;;;;4975084;28;20229;-48
2022/06/26 07:41:52;;;;;;;4.75;4.25;;;15.80;57.60;;;;;;4975306;28;20547;-53
2022/06/26 07:44:24;;;;;;;6.30;4.53;;;15.80;57.70;;;;;;4975217;28;20697;-46
2022/06/26 07:46:57;;;;;;;5.55;4.38;;;15.80;58.10;;;;;;4974374;28;20209;-45
2022/06/26 07:49:27;;;;;;;5.65;4.75;;;15.80;58.00;;;;;;4974433;28;20202;-48
2022/06/26 07:51:58;;;;;;;6.32;4.82;;;15.80;58.00;;;;;;4974711;28;20199;-49
2022/06/26 07:54:29;;;;;;;6.25;4.57;;;15.70;57.90;;;;;;4974966;28;20583;-45
2022/06/26 07:56:59;;;;;;;6.40;4.50;;;15.70;57.90;;;;;;4974966;28;20198;-46
2022/06/26 07:59:33;;;;;;;6.93;4.50;;;15.70;57.90;;;;;;4974836;28;20677;-46
2022/06/26 08:02:04;;;;;;;6.07;4.93;;;15.70;57.90;;;;;;4974096;28;20273;-48
2022/06/26 08:04:34;;;;;;;6.35;5.28;;;15.70;57.90;;;;;;4973321;28;20641;-49
2022/06/26 08:07:05;;;;;;;8.18;5.07;;;15.60;57.80;;;;;;4974486;28;20202;-50
2022/06/26 08:09:36;;;;;;;7.75;5.55;;;15.60;57.90;;;;;;4972493;28;20190;-48
2022/06/26 08:12:07;;;;;;;6.70;5.53;;;15.60;57.90;;;;;;4974469;28;20209;-47
2022/06/26 08:14:40;;;;;;;8.80;6.25;;;15.60;57.90;;;;;;4973938;28;20222;-52
2022/06/26 08:17:10;;;;;;;6.68;6.03;;;15.60;58.00;;;;;;4973550;28;20717;-48
2022/06/26 08:19:41;;;;;;;7.35;6.00;;;15.50;57.90;;;;;;4973904;28;20640;-47
2022/06/26 08:22:12;;;;;;;6.88;6.28;;;15.50;57.90;;;;;;4973981;28;20206;-50
2022/06/26 08:24:43;;;;;;;6.90;6.20;;;15.50;57.90;;;;;;4973891;28;20309;-49
2022/06/26 08:27:14;;;;;;;7.43;6.45;;;15.50;58.00;;;;;;4973856;28;20241;-50
2022/06/26 08:29:46;;;;;;;7.78;6.60;;;15.40;57.90;;;;;;4973727;28;20205;-51
2022/06/26 08:32:17;;;;;;;7.63;6.57;;;15.40;57.90;;;;;;4973492;28;20210;-49
2022/06/26 08:34:51;;;;;;;9.48;7.03;;;15.40;57.90;;;;;;4974785;28;20218;-47
2022/06/26 08:37:22;;;;;;;7.78;6.90;;;15.40;57.90;;;;;;4973590;28;20193;-48
2022/06/26 08:39:53;;;;;;;8.77;7.43;;;15.40;57.80;;;;;;4974060;28;20587;-50
2022/06/26 08:42:28;;;;;;;7.55;6.82;;;15.40;57.80;;;;;;4973609;28;20202;-49
2022/06/26 08:45:02;;;;;;;8.23;6.85;;;15.40;57.80;;;;;;4973608;28;20228;-49
2022/06/26 08:47:38;;;;;;;8.60;7.47;;;15.40;57.80;;;;;;4973110;28;20198;-50
2022/06/26 08:50:09;;;;;;;9.75;7.90;;;15.30;57.80;;;;;;4973398;28;20210;-50
2022/06/26 08:52:41;;;;;;;8.43;7.63;;;15.30;57.80;;;;;;4973858;28;20202;-48
2022/06/26 08:55:12;;;;;;;9.98;8.07;;;15.30;57.80;;;;;;4973755;28;20226;-47
2022/06/26 08:57:43;;;;;;;8.75;7.85;;;15.20;57.80;;;;;;4974074;28;20661;-49
2022/06/26 09:00:17;;;;;;;9.88;8.52;;;15.20;57.80;;;;;;4973604;28;20236;-48
2022/06/26 09:02:48;;;;;;;8.75;7.85;;;15.20;57.90;;;;;;4972735;28;20198;-49
2022/06/26 09:05:19;;;;;;;9.07;8.02;;;15.20;57.90;;;;;;4973373;28;20558;-48
2022/06/26 09:07:52;;;;;;;8.95;8.05;;;15.20;57.90;;;;;;4973247;28;20689;-50
2022/06/26 09:10:22;;;;;;;8.45;7.65;;;15.20;57.90;;;;;;4973140;28;20289;-48
2022/06/26 09:12:56;;;;;;;9.23;8.20;;;15.10;57.90;;;;;;4972997;28;20202;-49
2022/06/26 09:15:29;;;;;;;9.75;8.75;;;15.10;57.90;;;;;;4972968;28;20221;-47
2022/06/26 09:18:01;;;;;;;9.02;8.13;;;15.10;57.90;;;;;;4973066;28;20207;-51
2022/06/26 09:20:33;;;;;;;8.35;7.55;;;15.10;57.90;;;;;;4973132;28;20241;-51
2022/06/26 09:23:05;;;;;;;9.63;8.63;;;15.00;57.80;;;;;;4973092;28;20563;-51
2022/06/26 09:25:40;;;;;;;9.98;8.98;;;15.10;57.90;;;;;;4968536;28;20214;-52
2022/06/26 09:28:13;;;;;;;9.80;8.85;;;15.10;58.00;;;;;;4969928;28;20658;-53
2022/06/26 09:30:54;;;;;;;9.57;8.68;;;15.00;57.80;;;;;;4972557;28;20198;-49
2022/06/26 09:33:25;;;;;;;9.50;8.43;;;15.00;57.80;;;;;;4972490;28;20213;-52
2022/06/26 09:35:57;;;;;;;9.27;8.23;;;15.00;57.80;;;;;;4980258;28;20220;-52
2022/06/26 09:38:37;;;;;;;9.50;8.45;;;15.00;57.90;;;;;;4991630;28;20209;-55
2022/06/26 09:41:13;;;;;;;9.27;8.38;;;14.90;57.80;;;;;;4990636;28;20271;-50
2022/06/26 09:43:46;;;;;;;9.65;8.65;;;14.90;57.80;;;;;;4979653;28;20233;-54
2022/06/26 09:46:19;;;;;;;9.90;8.55;;;14.90;57.90;;;;;;4972145;28;20233;-55
2022/06/26 09:48:49;;;;;;;9.27;8.10;;;14.90;57.90;;;;;;4972049;28;20209;-50
2022/06/26 09:51:20;;;;;;;9.27;8.35;;;14.90;57.90;;;;;;4971840;28;20202;-52
2022/06/26 09:53:51;;;;;;;8.70;7.90;;;14.80;57.90;;;;;;4972274;28;20198;-52
2022/06/26 09:56:22;;;;;;;9.07;8.18;;;14.80;57.90;;;;;;4971787;28;20222;-51
2022/06/26 09:58:55;;;;;;;9.40;8.40;;;14.80;58.50;;;;;;4971904;28;20661;-51
2022/06/26 10:07:07;;;;;;;9.52;8.40;;;14.80;57.80;;;;;;4971283;28;20209;-53
2022/06/26 10:09:39;;;;;;;9.40;8.02;;;14.80;57.80;;;;;;4971536;28;20216;-53
2022/06/26 10:12:12;;;;;;;9.45;8.23;;;14.70;57.70;;;;;;4971871;28;20197;-53
2022/06/26 10:14:50;;;;;;;9.43;8.52;;;14.70;57.70;;;;;;4971167;28;20236;-51
2022/06/26 10:17:38;;;;;;;8.35;7.55;;;14.70;57.70;;;;;;4971905;28;20368;-50
2022/06/26 10:20:11;;;;;;;8.88;7.97;;;14.70;57.60;;;;;;4971833;28;20226;-54
2022/06/26 10:22:43;;;;;;;9.43;7.35;;;14.70;57.70;;;;;;4953443;29;20199;-51
2022/06/26 10:25:25;;;;;;;7.88;7.07;;;14.70;57.80;;;;;;4952386;28;20269;-53
2022/06/26 10:27:56;;;;;;;8.68;7.60;;;14.60;57.80;;;;;;4974612;28;20202;-48
2022/06/26 10:30:28;;;;;;;9.32;7.82;;;14.60;57.70;;;;;;4974781;28;20286;-50
2022/06/26 10:33:14;;;;;;;8.45;7.65;;;14.60;57.80;;;;;;4974906;28;20194;-52
2022/06/26 10:35:47;;;;;;;9.77;7.20;;;14.60;57.80;;;;;;4987417;23;20627;-47
2022/06/26 10:38:25;;;;;;;8.18;7.30;;;14.60;58.40;;;;;;4974767;28;20209;-47
2022/06/26 10:44:05;;;;;;;8.27;7.25;;;14.50;57.70;;;;;;4975289;28;20220;-50
2022/06/26 10:46:41;;;;;;;8.95;7.80;;;14.50;57.60;;;;;;4957534;28;20565;-46
2022/06/26 10:49:13;;;;;;;9.18;7.68;;;14.50;57.60;;;;;;4955169;28;20213;-45
2022/06/26 10:51:45;;;;;;;8.80;7.85;;;14.50;57.60;;;;;;4956018;28;20198;-47
2022/06/26 10:54:23;;;;;;;7.70;6.97;;;14.50;57.60;;;;;;4955480;28;20207;-46
2022/06/26 10:57:12;;;;;;;8.40;7.53;;;14.50;57.70;;;;;;4955946;28;20226;-46
2022/06/26 10:59:44;;;;;;;8.80;7.18;;;14.50;57.60;;;;;;4955252;29;20234;-47
2022/06/26 11:02:15;;;;;;;8.93;7.57;;;14.50;57.60;;;;;;4955121;28;20199;-47
2022/06/26 11:04:52;;;;;;;9.02;7.72;;;14.50;57.60;;;;;;4954551;28;20219;-46
2022/06/26 11:07:23;;;;;;;8.40;7.15;;;14.40;57.60;;;;;;4955651;28;20206;-47
2022/06/26 11:09:57;;;;;;;10.27;7.55;;;14.40;57.60;;;;;;4955068;29;20207;-46
2022/06/26 11:12:28;;;;;;;8.65;7.50;;;14.40;57.70;;;;;;4955611;28;20190;-47
2022/06/26 11:14:59;;;;;;;7.93;7.13;;;14.40;57.60;;;;;;4955287;28;20578;-46
2022/06/26 11:17:29;;;;;;;8.63;7.80;;;14.40;57.60;;;;;;4955553;28;20669;-45
2022/06/26 11:22:49;;;;;;;7.75;6.95;;;14.40;57.60;;;;;;4955080;28;20561;-44
2022/06/26 11:25:22;;;;;;;7.43;6.65;;;14.30;57.50;;;;;;4955375;28;20223;-45
2022/06/26 11:27:54;;;;;;;8.70;7.10;;;14.30;57.50;;;;;;4955321;29;20199;-46
2022/06/26 11:30:25;;;;;;;7.78;6.88;;;14.30;57.50;;;;;;4955595;29;20285;-45
2022/06/26 11:32:56;;;;;;;7.55;6.85;;;14.30;57.50;;;;;;4954412;29;20581;-45
2022/06/26 11:35:30;;;;;;;7.90;7.10;;;14.30;57.50;;;;;;4954384;28;20230;-46
2022/06/26 11:38:01;;;;;;;9.07;6.97;;;14.30;57.50;;;;;;4953833;28;20199;-45
2022/06/26 11:40:32;;;;;;;8.25;7.30;;;14.40;57.50;;;;;;4953507;29;20223;-44
2022/06/26 11:43:03;;;;;;;7.45;6.75;;;14.30;57.50;;;;;;4953232;29;20199;-46
2022/06/26 11:45:35;;;;;;;7.65;6.85;;;14.30;57.50;;;;;;4953374;28;20564;-45
2022/06/26 11:48:10;;;;;;;7.57;6.85;;;14.30;57.50;;;;;;4953363;29;20227;-49
2022/06/26 11:50:43;;;;;;;7.03;6.32;;;14.20;57.40;;;;;;4953406;29;20207;-46
2022/06/26 11:53:19;;;;;;;7.72;6.70;;;14.20;57.40;;;;;;4953679;29;20209;-47
2022/06/26 11:55:51;;;;;;;7.50;6.57;;;14.20;57.40;;;;;;4953443;28;20226;-48
2022/06/26 11:58:25;;;;;;;7.47;6.68;;;14.20;57.40;;;;;;4953560;29;20210;-47
2022/06/26 12:01:08;;;;;;;6.88;6.18;;;14.20;57.40;;;;;;4953262;28;20268;-48
2022/06/26 12:03:50;;;;;;;7.53;6.82;;;14.20;57.40;;;;;;4953629;28;20749;-48
2022/06/26 12:06:33;;;;;;;7.07;6.38;;;14.20;57.40;;;;;;4953624;28;20601;-47
2022/06/26 12:09:16;;;;;;;7.32;6.63;;;14.20;57.50;;;;;;4953799;29;20202;-47
2022/06/26 12:11:48;;;;;;;7.15;6.30;;;14.20;57.40;;;;;;4953356;29;20702;-46
2022/06/26 12:14:20;;;;;;;7.15;6.13;;;14.20;57.40;;;;;;4953208;28;20209;-47
2022/06/26 12:16:53;;;;;;;6.80;6.10;;;14.20;57.40;;;;;;4952844;29;20651;-46
2022/06/26 12:19:24;;;;;;;7.03;6.32;;;14.20;57.40;;;;;;4952895;29;20210;-49
2022/06/26 12:21:58;;;;;;;7.28;6.22;;;14.20;57.40;;;;;;4953007;29;20281;-44
2022/06/26 12:24:28;;;;;;;6.95;6.15;;;14.20;57.40;;;;;;4952694;28;20281;-44
2022/06/26 12:27:01;;;;;;;7.20;6.43;;;14.20;57.40;;;;;;4952612;29;20203;-45
2022/06/26 12:29:36;;;;;;;6.53;5.93;;;14.10;57.40;;;;;;4953210;29;20199;-46
2022/06/26 12:32:07;;;;;;;6.03;5.43;;;14.10;57.30;;;;;;4953018;29;20244;-45
2022/06/26 12:34:38;;;;;;;6.50;5.70;;;14.10;57.40;;;;;;4952793;28;20222;-46
2022/06/26 12:37:10;;;;;;;7.63;6.15;;;14.10;57.40;;;;;;4953460;29;20655;-46
2022/06/26 12:39:41;;;;;;;7.05;6.07;;;14.10;57.30;;;;;;4953064;29;20674;-47
2022/06/26 12:42:12;;;;;;;7.57;5.85;;;14.10;57.40;;;;;;4952796;29;20233;-48
2022/06/26 12:44:43;;;;;;;6.63;5.70;;;14.00;57.30;;;;;;4953048;28;20703;-46
2022/06/26 12:47:13;;;;;;;6.38;5.47;;;14.00;57.30;;;;;;4952977;29;20194;-46
2022/06/26 12:49:44;;;;;;;6.22;5.53;;;14.00;57.30;;;;;;4952357;28;20206;-46
2022/06/26 12:52:17;;;;;;;7.95;6.30;;;14.00;57.30;;;;;;4953189;29;20199;-46
2022/06/26 12:54:47;;;;;;;5.95;5.25;;;14.00;57.30;;;;;;4952427;28;20223;-46
2022/06/26 12:57:18;;;;;;;7.93;5.95;;;14.00;57.20;;;;;;4952238;29;20270;-45
2022/06/26 12:59:49;;;;;;;6.60;5.90;;;14.00;57.20;;;;;;4952306;29;20206;-45
2022/06/26 13:02:20;;;;;;;7.15;5.88;;;14.00;57.20;;;;;;4952166;29;20584;-46
2022/06/26 13:04:51;;;;;;;6.50;5.78;;;14.00;57.20;;;;;;4952248;28;20307;-45
2022/06/26 13:07:24;;;;;;;6.53;5.38;;;14.00;57.20;;;;;;4952599;29;20202;-48
2022/06/26 13:09:55;;;;;;;5.57;5.07;;;14.00;57.20;;;;;;4952617;29;20210;-46
2022/06/26 13:12:25;;;;;;;7.05;5.68;;;14.00;57.20;;;;;;4951992;29;20221;-46
2022/06/26 13:14:56;;;;;;;6.30;5.50;;;14.00;57.20;;;;;;4952023;28;20219;-45
2022/06/26 13:17:27;;;;;;;7.03;5.97;;;13.90;57.20;;;;;;4952293;29;20214;-45
2022/06/26 13:19:57;;;;;;;6.43;5.70;;;13.90;57.20;;;;;;4952406;29;20222;-48
2022/06/26 13:22:30;;;;;;;7.68;5.82;;;13.90;57.20;;;;;;4952317;29;20230;-45
2022/06/26 13:25:01;;;;;;;6.25;5.47;;;13.90;57.10;;;;;;4952348;28;20286;-47
2022/06/26 13:27:32;;;;;;;7.53;5.78;;;13.90;57.20;;;;;;4951934;29;20195;-46
2022/06/26 13:30:02;;;;;;;8.05;5.68;;;13.90;57.20;;;;;;4952271;29;20195;-46